sensor_id;sensor_type;location;lat;lon;timestamp;temperature;humidity
17762;DHT22;9005;48.838;10.112;2023-03-21T00:02:20;8.30;99.90
17762;DHT22;9005;48.838;10.112;2023-03-21T00:04:48;8.30;99.90
17762;DHT22;9005;48.838;10.112;2023-03-21T00:07:15;8.30;99.90
17762;DHT22;9005;48.838;10.112;2023-03-21T00:09:42;8.30;99.90
17762;DHT22;9005;48.838;10.112;2023-03-21T00:12:08;8.30;99.90
17762;DHT22;9005;48.838;10.112;2023-03-21T00:14:36;8.40;99.90
17762;DHT22;9005;48.838;10.112;2023-03-21T00:17:05;8.40;99.90
17762;DHT22;9005;48.838;10.112;2023-03-21T00:19:31;8.40;99.90
17762;DHT22;9005;48.838;10.112;2023-03-21T00:22:00;8.40;99.90
17762;DHT22;9005;48.838;10.112;2023-03-21T00:24:27;8.40;99.90
17762;DHT22;9005;48.838;10.112;2023-03-21T00:26:53;8.30;99.90
17762;DHT22;9005;48.838;10.112;2023-03-21T00:29:20;8.30;99.90
17762;DHT22;9005;48.838;10.112;2023-03-21T00:31:47;8.40;99.90
17762;DHT22;9005;48.838;10.112;2023-03-21T00:34:15;8.30;99.90
17762;DHT22;9005;48.838;10.112;2023-03-21T00:36:42;8.30;99.90
17762;DHT22;9005;48.838;10.112;2023-03-21T00:39:09;8.30;99.90
17762;DHT22;9005;48.838;10.112;2023-03-21T00:41:36;8.30;99.90
17762;DHT22;9005;48.838;10.112;2023-03-21T00:44:03;8.30;99.90
17762;DHT22;9005;48.838;10.112;2023-03-21T00:46:29;8.30;99.90
17762;DHT22;9005;48.838;10.112;2023-03-21T00:48:56;8.30;99.90
17762;DHT22;9005;48.838;10.112;2023-03-21T00:51:24;8.30;99.90
17762;DHT22;9005;48.838;10.112;2023-03-21T00:53:53;8.30;99.90
17762;DHT22;9005;48.838;10.112;2023-03-21T00:56:20;8.30;99.90
17762;DHT22;9005;48.838;10.112;2023-03-21T00:58:47;8.30;99.90
17762;DHT22;9005;48.838;10.112;2023-03-21T01:01:13;8.30;99.90
17762;DHT22;9005;48.838;10.112;2023-03-21T01:03:40;8.30;99.90
17762;DHT22;9005;48.838;10.112;2023-03-21T01:06:12;8.30;99.90
17762;DHT22;9005;48.838;10.112;2023-03-21T01:08:46;8.30;99.90
17762;DHT22;9005;48.838;10.112;2023-03-21T01:11:15;8.30;99.90
17762;DHT22;9005;48.838;10.112;2023-03-21T01:13:42;8.30;99.90
17762;DHT22;9005;48.838;10.112;2023-03-21T01:16:10;8.30;99.90
17762;DHT22;9005;48.838;10.112;2023-03-21T01:18:38;8.30;99.90
17762;DHT22;9005;48.838;10.112;2023-03-21T01:21:07;8.20;99.90
17762;DHT22;9005;48.838;10.112;2023-03-21T01:23:34;8.20;99.90
17762;DHT22;9005;48.838;10.112;2023-03-21T01:26:03;8.20;99.90
17762;DHT22;9005;48.838;10.112;2023-03-21T01:28:30;8.20;99.90
17762;DHT22;9005;48.838;10.112;2023-03-21T01:31:00;8.20;99.90
17762;DHT22;9005;48.838;10.112;2023-03-21T01:33:26;8.20;99.90
17762;DHT22;9005;48.838;10.112;2023-03-21T01:35:53;8.20;99.90
17762;DHT22;9005;48.838;10.112;2023-03-21T01:38:20;8.20;99.90
17762;DHT22;9005;48.838;10.112;2023-03-21T01:40:48;8.10;99.90
17762;DHT22;9005;48.838;10.112;2023-03-21T01:43:23;8.10;99.90
17762;DHT22;9005;48.838;10.112;2023-03-21T01:48:58;8.20;99.90
17762;DHT22;9005;48.838;10.112;2023-03-21T01:51:26;8.20;99.90
17762;DHT22;9005;48.838;10.112;2023-03-21T01:53:55;8.20;99.90
17762;DHT22;9005;48.838;10.112;2023-03-21T01:56:24;8.20;99.90
17762;DHT22;9005;48.838;10.112;2023-03-21T01:58:57;8.20;99.90
17762;DHT22;9005;48.838;10.112;2023-03-21T02:01:27;8.20;99.90
17762;DHT22;9005;48.838;10.112;2023-03-21T02:03:54;8.20;99.90
17762;DHT22;9005;48.838;10.112;2023-03-21T02:06:27;8.20;99.90
17762;DHT22;9005;48.838;10.112;2023-03-21T02:09:03;8.20;99.90
17762;DHT22;9005;48.838;10.112;2023-03-21T02:11:30;8.20;99.90
17762;DHT22;9005;48.838;10.112;2023-03-21T02:13:59;8.20;99.90
17762;DHT22;9005;48.838;10.112;2023-03-21T02:16:33;8.20;99.90
17762;DHT22;9005;48.838;10.112;2023-03-21T02:19:16;8.20;99.90
17762;DHT22;9005;48.838;10.112;2023-03-21T02:25:13;8.10;99.90
17762;DHT22;9005;48.838;10.112;2023-03-21T02:27:45;8.20;99.90
17762;DHT22;9005;48.838;10.112;2023-03-21T02:30:39;8.20;99.90
17762;DHT22;9005;48.838;10.112;2023-03-21T02:33:36;8.20;99.90
17762;DHT22;9005;48.838;10.112;2023-03-21T02:36:23;8.20;99.90
17762;DHT22;9005;48.838;10.112;2023-03-21T02:38:55;8.20;99.90
17762;DHT22;9005;48.838;10.112;2023-03-21T02:41:32;8.20;99.90
17762;DHT22;9005;48.838;10.112;2023-03-21T02:44:06;8.10;99.90
17762;DHT22;9005;48.838;10.112;2023-03-21T02:46:37;8.10;99.90
17762;DHT22;9005;48.838;10.112;2023-03-21T02:49:10;8.10;99.90
17762;DHT22;9005;48.838;10.112;2023-03-21T02:51:40;8.10;99.90
17762;DHT22;9005;48.838;10.112;2023-03-21T02:54:12;8.10;99.90
17762;DHT22;9005;48.838;10.112;2023-03-21T02:56:40;8.10;99.90
17762;DHT22;9005;48.838;10.112;2023-03-21T02:59:08;8.10;99.90
17762;DHT22;9005;48.838;10.112;2023-03-21T03:01:35;8.00;99.90
17762;DHT22;9005;48.838;10.112;2023-03-21T03:04:02;8.00;99.90
17762;DHT22;9005;48.838;10.112;2023-03-21T03:06:36;8.00;99.90
17762;DHT22;9005;48.838;10.112;2023-03-21T03:09:18;8.00;99.90
17762;DHT22;9005;48.838;10.112;2023-03-21T03:11:55;7.90;99.90
17762;DHT22;9005;48.838;10.112;2023-03-21T03:14:38;7.90;99.90
17762;DHT22;9005;48.838;10.112;2023-03-21T03:17:18;7.90;99.90
17762;DHT22;9005;48.838;10.112;2023-03-21T03:19:56;7.90;99.90
17762;DHT22;9005;48.838;10.112;2023-03-21T03:22:30;7.80;99.90
17762;DHT22;9005;48.838;10.112;2023-03-21T03:25:04;7.90;99.90
17762;DHT22;9005;48.838;10.112;2023-03-21T03:27:36;7.80;99.90
17762;DHT22;9005;48.838;10.112;2023-03-21T03:30:07;7.80;99.90
17762;DHT22;9005;48.838;10.112;2023-03-21T03:32:37;7.80;99.90
17762;DHT22;9005;48.838;10.112;2023-03-21T03:35:10;7.80;99.90
17762;DHT22;9005;48.838;10.112;2023-03-21T03:37:40;7.80;99.90
17762;DHT22;9005;48.838;10.112;2023-03-21T03:40:12;7.80;99.90
17762;DHT22;9005;48.838;10.112;2023-03-21T03:42:44;7.80;99.90
17762;DHT22;9005;48.838;10.112;2023-03-21T03:45:12;7.70;99.90
17762;DHT22;9005;48.838;10.112;2023-03-21T03:47:42;7.70;99.90
17762;DHT22;9005;48.838;10.112;2023-03-21T03:50:13;7.70;99.90
17762;DHT22;9005;48.838;10.112;2023-03-21T03:52:46;7.70;99.90
17762;DHT22;9005;48.838;10.112;2023-03-21T03:55:18;7.70;99.90
17762;DHT22;9005;48.838;10.112;2023-03-21T03:57:47;7.70;99.90
17762;DHT22;9005;48.838;10.112;2023-03-21T04:00:15;7.70;99.90
17762;DHT22;9005;48.838;10.112;2023-03-21T04:02:43;7.70;99.90
17762;DHT22;9005;48.838;10.112;2023-03-21T04:05:10;7.70;99.90
17762;DHT22;9005;48.838;10.112;2023-03-21T04:07:37;7.70;99.90
17762;DHT22;9005;48.838;10.112;2023-03-21T04:10:04;7.70;99.90
17762;DHT22;9005;48.838;10.112;2023-03-21T04:12:33;7.70;99.90
17762;DHT22;9005;48.838;10.112;2023-03-21T04:14:59;7.70;99.90
17762;DHT22;9005;48.838;10.112;2023-03-21T04:17:26;7.70;99.90
17762;DHT22;9005;48.838;10.112;2023-03-21T04:19:53;7.70;99.90
17762;DHT22;9005;48.838;10.112;2023-03-21T04:22:20;7.70;99.90
17762;DHT22;9005;48.838;10.112;2023-03-21T04:24:47;7.70;99.90
17762;DHT22;9005;48.838;10.112;2023-03-21T04:27:14;7.70;99.90
17762;DHT22;9005;48.838;10.112;2023-03-21T04:29:42;7.70;99.90
17762;DHT22;9005;48.838;10.112;2023-03-21T04:32:08;7.60;99.90
17762;DHT22;9005;48.838;10.112;2023-03-21T04:34:40;7.70;99.90
17762;DHT22;9005;48.838;10.112;2023-03-21T04:37:08;7.70;99.90
17762;DHT22;9005;48.838;10.112;2023-03-21T04:39:38;7.60;99.90
17762;DHT22;9005;48.838;10.112;2023-03-21T04:42:04;7.60;99.90
17762;DHT22;9005;48.838;10.112;2023-03-21T04:44:31;7.60;99.90
17762;DHT22;9005;48.838;10.112;2023-03-21T04:46:59;7.60;99.90
17762;DHT22;9005;48.838;10.112;2023-03-21T04:49:26;7.60;99.90
17762;DHT22;9005;48.838;10.112;2023-03-21T04:51:53;7.60;99.90
17762;DHT22;9005;48.838;10.112;2023-03-21T04:54:19;7.60;99.90
17762;DHT22;9005;48.838;10.112;2023-03-21T04:56:47;7.60;99.90
17762;DHT22;9005;48.838;10.112;2023-03-21T04:59:14;7.60;99.90
17762;DHT22;9005;48.838;10.112;2023-03-21T05:01:41;7.30;99.90
17762;DHT22;9005;48.838;10.112;2023-03-21T05:04:12;7.60;99.90
17762;DHT22;9005;48.838;10.112;2023-03-21T05:06:39;7.50;99.90
17762;DHT22;9005;48.838;10.112;2023-03-21T05:09:07;7.50;99.90
17762;DHT22;9005;48.838;10.112;2023-03-21T05:11:36;7.50;99.90
17762;DHT22;9005;48.838;10.112;2023-03-21T05:14:03;7.50;99.90
17762;DHT22;9005;48.838;10.112;2023-03-21T05:16:30;7.50;99.90
17762;DHT22;9005;48.838;10.112;2023-03-21T05:18:57;7.50;99.90
17762;DHT22;9005;48.838;10.112;2023-03-21T05:21:29;7.50;99.90
17762;DHT22;9005;48.838;10.112;2023-03-21T05:23:58;7.50;99.90
17762;DHT22;9005;48.838;10.112;2023-03-21T05:26:28;7.50;99.90
17762;DHT22;9005;48.838;10.112;2023-03-21T05:28:55;7.50;99.90
17762;DHT22;9005;48.838;10.112;2023-03-21T05:31:21;7.40;99.90
17762;DHT22;9005;48.838;10.112;2023-03-21T05:33:48;7.40;99.90
17762;DHT22;9005;48.838;10.112;2023-03-21T05:36:15;7.40;99.90
17762;DHT22;9005;48.838;10.112;2023-03-21T05:38:43;7.40;99.90
17762;DHT22;9005;48.838;10.112;2023-03-21T05:41:11;7.40;99.90
17762;DHT22;9005;48.838;10.112;2023-03-21T05:43:37;7.40;99.90
17762;DHT22;9005;48.838;10.112;2023-03-21T05:46:05;7.40;99.90
17762;DHT22;9005;48.838;10.112;2023-03-21T05:48:32;7.50;99.90
17762;DHT22;9005;48.838;10.112;2023-03-21T05:50:59;7.50;99.90
17762;DHT22;9005;48.838;10.112;2023-03-21T05:53:25;7.50;99.90
17762;DHT22;9005;48.838;10.112;2023-03-21T05:55:53;7.50;99.90
17762;DHT22;9005;48.838;10.112;2023-03-21T05:58:20;7.50;99.90
17762;DHT22;9005;48.838;10.112;2023-03-21T06:03:14;7.80;99.90
17762;DHT22;9005;48.838;10.112;2023-03-21T06:05:41;7.80;99.90
17762;DHT22;9005;48.838;10.112;2023-03-21T06:08:07;7.70;99.90
17762;DHT22;9005;48.838;10.112;2023-03-21T06:10:34;7.70;99.90
17762;DHT22;9005;48.838;10.112;2023-03-21T06:13:02;7.70;99.90
17762;DHT22;9005;48.838;10.112;2023-03-21T06:15:29;7.80;99.90
17762;DHT22;9005;48.838;10.112;2023-03-21T07:04:42;9.60;99.90
17762;DHT22;9005;48.838;10.112;2023-03-21T07:07:09;9.50;99.90
17762;DHT22;9005;48.838;10.112;2023-03-21T07:09:36;9.50;99.90
17762;DHT22;9005;48.838;10.112;2023-03-21T07:12:02;9.60;99.90
17762;DHT22;9005;48.838;10.112;2023-03-21T07:14:29;9.70;99.90
17762;DHT22;9005;48.838;10.112;2023-03-21T07:16:58;9.70;99.90
17762;DHT22;9005;48.838;10.112;2023-03-21T07:19:25;9.80;99.90
17762;DHT22;9005;48.838;10.112;2023-03-21T07:21:53;9.90;99.90
17762;DHT22;9005;48.838;10.112;2023-03-21T07:24:20;10.00;99.90
17762;DHT22;9005;48.838;10.112;2023-03-21T07:26:47;10.10;99.90
17762;DHT22;9005;48.838;10.112;2023-03-21T07:29:14;10.20;99.90
17762;DHT22;9005;48.838;10.112;2023-03-21T07:31:42;10.40;99.90
17762;DHT22;9005;48.838;10.112;2023-03-21T07:34:08;10.50;99.90
17762;DHT22;9005;48.838;10.112;2023-03-21T07:36:35;10.60;99.90
17762;DHT22;9005;48.838;10.112;2023-03-21T07:39:03;10.70;99.90
17762;DHT22;9005;48.838;10.112;2023-03-21T07:41:30;10.80;99.90
17762;DHT22;9005;48.838;10.112;2023-03-21T07:43:57;10.90;99.90
17762;DHT22;9005;48.838;10.112;2023-03-21T07:46:24;11.10;99.90
17762;DHT22;9005;48.838;10.112;2023-03-21T07:48:51;11.20;99.90
17762;DHT22;9005;48.838;10.112;2023-03-21T07:51:18;11.30;99.90
17762;DHT22;9005;48.838;10.112;2023-03-21T07:53:44;11.40;99.90
17762;DHT22;9005;48.838;10.112;2023-03-21T07:56:14;11.50;99.90
17762;DHT22;9005;48.838;10.112;2023-03-21T07:58:41;11.70;99.90
17762;DHT22;9005;48.838;10.112;2023-03-21T08:01:08;11.80;99.90
17762;DHT22;9005;48.838;10.112;2023-03-21T08:03:34;11.90;99.90
17762;DHT22;9005;48.838;10.112;2023-03-21T08:06:02;12.10;99.90
17762;DHT22;9005;48.838;10.112;2023-03-21T08:08:29;12.20;99.90
17762;DHT22;9005;48.838;10.112;2023-03-21T08:10:56;12.40;99.90
17762;DHT22;9005;48.838;10.112;2023-03-21T08:13:24;12.70;99.90
17762;DHT22;9005;48.838;10.112;2023-03-21T08:15:52;12.30;99.90
17762;DHT22;9005;48.838;10.112;2023-03-21T08:18:18;12.80;99.90
17762;DHT22;9005;48.838;10.112;2023-03-21T08:20:49;13.00;99.90
17762;DHT22;9005;48.838;10.112;2023-03-21T08:23:16;13.10;99.90
17762;DHT22;9005;48.838;10.112;2023-03-21T08:25:43;13.10;99.90
17762;DHT22;9005;48.838;10.112;2023-03-21T08:28:10;13.10;99.90
17762;DHT22;9005;48.838;10.112;2023-03-21T08:30:38;13.30;99.90
17762;DHT22;9005;48.838;10.112;2023-03-21T08:33:04;13.30;99.90
17762;DHT22;9005;48.838;10.112;2023-03-21T08:35:32;13.40;99.90
17762;DHT22;9005;48.838;10.112;2023-03-21T08:38:01;13.40;99.90
17762;DHT22;9005;48.838;10.112;2023-03-21T08:40:27;13.50;99.90
17762;DHT22;9005;48.838;10.112;2023-03-21T08:42:54;13.60;99.90
17762;DHT22;9005;48.838;10.112;2023-03-21T08:45:21;13.70;99.90
17762;DHT22;9005;48.838;10.112;2023-03-21T08:47:49;13.90;99.90
17762;DHT22;9005;48.838;10.112;2023-03-21T08:50:17;14.10;99.90
17762;DHT22;9005;48.838;10.112;2023-03-21T08:52:44;14.20;99.90
17762;DHT22;9005;48.838;10.112;2023-03-21T08:55:12;14.20;99.90
17762;DHT22;9005;48.838;10.112;2023-03-21T08:57:39;14.20;99.90
17762;DHT22;9005;48.838;10.112;2023-03-21T09:00:10;14.20;99.90
17762;DHT22;9005;48.838;10.112;2023-03-21T09:02:39;14.40;99.90
17762;DHT22;9005;48.838;10.112;2023-03-21T09:05:08;14.60;99.90
17762;DHT22;9005;48.838;10.112;2023-03-21T09:07:36;14.80;99.90
17762;DHT22;9005;48.838;10.112;2023-03-21T09:10:05;14.90;99.90
17762;DHT22;9005;48.838;10.112;2023-03-21T09:12:32;14.80;99.30
17762;DHT22;9005;48.838;10.112;2023-03-21T09:14:59;14.70;98.80
17762;DHT22;9005;48.838;10.112;2023-03-21T09:17:27;14.60;99.90
17762;DHT22;9005;48.838;10.112;2023-03-21T09:19:54;14.60;99.90
17762;DHT22;9005;48.838;10.112;2023-03-21T09:22:23;14.40;99.90
17762;DHT22;9005;48.838;10.112;2023-03-21T09:24:49;14.20;99.90
17762;DHT22;9005;48.838;10.112;2023-03-21T09:27:17;14.00;99.90
17762;DHT22;9005;48.838;10.112;2023-03-21T09:29:47;14.00;99.90
17762;DHT22;9005;48.838;10.112;2023-03-21T09:32:14;14.00;99.90
17762;DHT22;9005;48.838;10.112;2023-03-21T09:34:42;14.30;99.90
17762;DHT22;9005;48.838;10.112;2023-03-21T09:37:10;14.50;97.90
17762;DHT22;9005;48.838;10.112;2023-03-21T09:39:39;14.50;99.40
17762;DHT22;9005;48.838;10.112;2023-03-21T09:42:15;14.40;98.80
17762;DHT22;9005;48.838;10.112;2023-03-21T09:44:53;14.70;97.10
17762;DHT22;9005;48.838;10.112;2023-03-21T09:47:27;15.00;96.10
17762;DHT22;9005;48.838;10.112;2023-03-21T09:49:58;15.40;95.90
17762;DHT22;9005;48.838;10.112;2023-03-21T09:52:31;15.80;91.90
17762;DHT22;9005;48.838;10.112;2023-03-21T09:55:02;16.00;86.80
17762;DHT22;9005;48.838;10.112;2023-03-21T09:57:44;15.90;85.80
17762;DHT22;9005;48.838;10.112;2023-03-21T10:00:16;16.00;90.30
17762;DHT22;9005;48.838;10.112;2023-03-21T10:02:46;16.30;89.80
17762;DHT22;9005;48.838;10.112;2023-03-21T10:05:18;17.10;99.90
17762;DHT22;9005;48.838;10.112;2023-03-21T10:07:50;18.10;70.00
17762;DHT22;9005;48.838;10.112;2023-03-21T10:10:21;18.90;75.40
17762;DHT22;9005;48.838;10.112;2023-03-21T10:12:52;19.70;54.50
17762;DHT22;9005;48.838;10.112;2023-03-21T10:15:22;20.50;57.00
17762;DHT22;9005;48.838;10.112;2023-03-21T10:17:54;21.20;46.70
17762;DHT22;9005;48.838;10.112;2023-03-21T10:20:23;22.10;44.30
17762;DHT22;9005;48.838;10.112;2023-03-21T10:22:52;22.80;40.00
17762;DHT22;9005;48.838;10.112;2023-03-21T10:25:32;23.00;45.10
17762;DHT22;9005;48.838;10.112;2023-03-21T10:28:00;23.90;40.80
17762;DHT22;9005;48.838;10.112;2023-03-21T10:30:35;24.40;36.80
17762;DHT22;9005;48.838;10.112;2023-03-21T10:33:05;25.20;37.20
17762;DHT22;9005;48.838;10.112;2023-03-21T10:35:35;25.70;30.80
17762;DHT22;9005;48.838;10.112;2023-03-21T10:38:05;25.40;30.90
17762;DHT22;9005;48.838;10.112;2023-03-21T10:40:34;24.20;31.40
17762;DHT22;9005;48.838;10.112;2023-03-21T10:43:17;23.50;34.20
17762;DHT22;9005;48.838;10.112;2023-03-21T10:45:45;23.40;32.70
17762;DHT22;9005;48.838;10.112;2023-03-21T10:48:12;22.80;35.20
17762;DHT22;9005;48.838;10.112;2023-03-21T10:50:40;22.30;38.00
17762;DHT22;9005;48.838;10.112;2023-03-21T10:53:14;21.90;39.10
17762;DHT22;9005;48.838;10.112;2023-03-21T10:55:46;22.30;39.00
17762;DHT22;9005;48.838;10.112;2023-03-21T10:58:16;23.30;42.30
17762;DHT22;9005;48.838;10.112;2023-03-21T11:00:44;24.60;38.50
17762;DHT22;9005;48.838;10.112;2023-03-21T11:03:20;26.00;33.50
17762;DHT22;9005;48.838;10.112;2023-03-21T11:05:51;25.20;30.80
17762;DHT22;9005;48.838;10.112;2023-03-21T11:08:18;24.20;34.30
17762;DHT22;9005;48.838;10.112;2023-03-21T11:11:00;24.30;37.20
17762;DHT22;9005;48.838;10.112;2023-03-21T11:13:33;25.10;36.30
17762;DHT22;9005;48.838;10.112;2023-03-21T11:16:05;25.80;34.00
17762;DHT22;9005;48.838;10.112;2023-03-21T11:18:32;25.90;29.70
17762;DHT22;9005;48.838;10.112;2023-03-21T11:21:06;24.70;31.80
17762;DHT22;9005;48.838;10.112;2023-03-21T11:23:38;23.60;33.70
17762;DHT22;9005;48.838;10.112;2023-03-21T11:26:11;23.10;37.00
17762;DHT22;9005;48.838;10.112;2023-03-21T11:28:41;23.20;51.10
17762;DHT22;9005;48.838;10.112;2023-03-21T11:31:10;23.70;50.70
17762;DHT22;9005;48.838;10.112;2023-03-21T11:33:39;23.50;36.60
17762;DHT22;9005;48.838;10.112;2023-03-21T11:36:26;22.60;37.20
17762;DHT22;9005;48.838;10.112;2023-03-21T11:39:10;21.40;40.80
17762;DHT22;9005;48.838;10.112;2023-03-21T11:41:41;20.60;42.50
17762;DHT22;9005;48.838;10.112;2023-03-21T11:44:25;20.10;45.50
17762;DHT22;9005;48.838;10.112;2023-03-21T11:46:52;20.00;44.60
17762;DHT22;9005;48.838;10.112;2023-03-21T11:49:20;19.70;46.00
17762;DHT22;9005;48.838;10.112;2023-03-21T11:51:54;19.40;48.00
17762;DHT22;9005;48.838;10.112;2023-03-21T11:54:26;20.00;48.50
17762;DHT22;9005;48.838;10.112;2023-03-21T11:57:02;20.80;46.90
17762;DHT22;9005;48.838;10.112;2023-03-21T11:59:38;21.70;43.80
17762;DHT22;9005;48.838;10.112;2023-03-21T12:02:45;22.90;42.30
17762;DHT22;9005;48.838;10.112;2023-03-21T12:05:24;23.90;39.30
17762;DHT22;9005;48.838;10.112;2023-03-21T12:07:56;23.80;36.50
17762;DHT22;9005;48.838;10.112;2023-03-21T12:10:32;22.90;39.00
17762;DHT22;9005;48.838;10.112;2023-03-21T12:13:12;23.00;41.90
17762;DHT22;9005;48.838;10.112;2023-03-21T12:15:47;23.40;39.20
17762;DHT22;9005;48.838;10.112;2023-03-21T12:18:28;23.90;38.00
17762;DHT22;9005;48.838;10.112;2023-03-21T12:21:03;24.20;36.20
17762;DHT22;9005;48.838;10.112;2023-03-21T12:23:41;23.80;36.20
17762;DHT22;9005;48.838;10.112;2023-03-21T12:26:21;23.50;35.50
17762;DHT22;9005;48.838;10.112;2023-03-21T12:29:03;22.70;38.50
17762;DHT22;9005;48.838;10.112;2023-03-21T12:31:42;22.60;38.70
17762;DHT22;9005;48.838;10.112;2023-03-21T12:34:23;22.20;39.50
17762;DHT22;9005;48.838;10.112;2023-03-21T12:37:03;22.10;39.70
17762;DHT22;9005;48.838;10.112;2023-03-21T12:39:34;21.60;40.80
17762;DHT22;9005;48.838;10.112;2023-03-21T12:42:09;20.90;42.90
17762;DHT22;9005;48.838;10.112;2023-03-21T12:44:41;20.00;45.00
17762;DHT22;9005;48.838;10.112;2023-03-21T12:47:13;19.80;48.60
17762;DHT22;9005;48.838;10.112;2023-03-21T12:49:46;19.90;48.50
17762;DHT22;9005;48.838;10.112;2023-03-21T12:52:15;20.10;46.70
17762;DHT22;9005;48.838;10.112;2023-03-21T12:54:48;20.40;46.80
17762;DHT22;9005;48.838;10.112;2023-03-21T12:57:17;20.30;45.90
17762;DHT22;9005;48.838;10.112;2023-03-21T12:59:51;19.90;45.80
17762;DHT22;9005;48.838;10.112;2023-03-21T13:02:22;19.60;50.80
17762;DHT22;9005;48.838;10.112;2023-03-21T13:04:57;19.20;51.30
17762;DHT22;9005;48.838;10.112;2023-03-21T13:07:25;19.10;51.50
17762;DHT22;9005;48.838;10.112;2023-03-21T13:09:54;18.80;52.20
17762;DHT22;9005;48.838;10.112;2023-03-21T13:15:49;18.60;54.60
17762;DHT22;9005;48.838;10.112;2023-03-21T13:18:28;18.30;53.40
17762;DHT22;9005;48.838;10.112;2023-03-21T13:20:58;18.10;56.40
17762;DHT22;9005;48.838;10.112;2023-03-21T13:23:33;17.90;61.00
17762;DHT22;9005;48.838;10.112;2023-03-21T13:26:00;17.80;59.60
17762;DHT22;9005;48.838;10.112;2023-03-21T13:28:29;17.70;57.20
17762;DHT22;9005;48.838;10.112;2023-03-21T13:31:15;17.50;63.60
17762;DHT22;9005;48.838;10.112;2023-03-21T13:33:45;17.30;62.70
17762;DHT22;9005;48.838;10.112;2023-03-21T13:36:14;17.00;64.10
17762;DHT22;9005;48.838;10.112;2023-03-21T13:38:48;16.70;71.30
17762;DHT22;9005;48.838;10.112;2023-03-21T13:41:17;16.50;74.40
17762;DHT22;9005;48.838;10.112;2023-03-21T13:43:51;16.40;77.10
17762;DHT22;9005;48.838;10.112;2023-03-21T13:46:35;16.30;78.70
17762;DHT22;9005;48.838;10.112;2023-03-21T13:49:13;16.40;78.20
17762;DHT22;9005;48.838;10.112;2023-03-21T13:51:43;16.30;78.90
17762;DHT22;9005;48.838;10.112;2023-03-21T13:54:22;16.40;81.50
17762;DHT22;9005;48.838;10.112;2023-03-21T13:56:52;16.60;82.60
17762;DHT22;9005;48.838;10.112;2023-03-21T13:59:37;16.40;78.50
17762;DHT22;9005;48.838;10.112;2023-03-21T14:02:21;16.30;75.50
17762;DHT22;9005;48.838;10.112;2023-03-21T14:04:55;16.20;80.80
17762;DHT22;9005;48.838;10.112;2023-03-21T14:07:25;16.00;78.70
17762;DHT22;9005;48.838;10.112;2023-03-21T14:09:57;15.90;83.10
17762;DHT22;9005;48.838;10.112;2023-03-21T14:12:27;15.90;82.00
17762;DHT22;9005;48.838;10.112;2023-03-21T14:14:58;15.90;80.40
17762;DHT22;9005;48.838;10.112;2023-03-21T14:17:28;15.80;79.00
17762;DHT22;9005;48.838;10.112;2023-03-21T14:19:58;15.70;77.50
17762;DHT22;9005;48.838;10.112;2023-03-21T14:22:26;15.70;83.60
17762;DHT22;9005;48.838;10.112;2023-03-21T14:24:55;15.60;77.20
17762;DHT22;9005;48.838;10.112;2023-03-21T14:27:24;15.60;81.30
17762;DHT22;9005;48.838;10.112;2023-03-21T14:29:51;15.50;80.50
17762;DHT22;9005;48.838;10.112;2023-03-21T14:32:21;15.50;84.30
17762;DHT22;9005;48.838;10.112;2023-03-21T14:34:50;15.40;81.70
17762;DHT22;9005;48.838;10.112;2023-03-21T14:37:28;14.70;80.60
17762;DHT22;9005;48.838;10.112;2023-03-21T14:39:57;15.20;82.50
17762;DHT22;9005;48.838;10.112;2023-03-21T14:42:24;15.20;84.80
17762;DHT22;9005;48.838;10.112;2023-03-21T14:44:51;15.20;82.50
17762;DHT22;9005;48.838;10.112;2023-03-21T14:47:21;15.10;88.50
17762;DHT22;9005;48.838;10.112;2023-03-21T14:49:50;15.00;85.10
17762;DHT22;9005;48.838;10.112;2023-03-21T14:52:19;15.00;90.30
17762;DHT22;9005;48.838;10.112;2023-03-21T14:54:48;15.00;90.50
17762;DHT22;9005;48.838;10.112;2023-03-21T14:57:19;14.90;91.70
17762;DHT22;9005;48.838;10.112;2023-03-21T14:59:49;14.90;91.60
17762;DHT22;9005;48.838;10.112;2023-03-21T15:02:19;14.90;89.70
17762;DHT22;9005;48.838;10.112;2023-03-21T15:04:52;14.80;91.10
17762;DHT22;9005;48.838;10.112;2023-03-21T15:07:24;14.80;93.20
17762;DHT22;9005;48.838;10.112;2023-03-21T15:09:53;14.80;93.20
17762;DHT22;9005;48.838;10.112;2023-03-21T15:12:20;13.80;91.70
17762;DHT22;9005;48.838;10.112;2023-03-21T15:14:47;14.70;95.60
17762;DHT22;9005;48.838;10.112;2023-03-21T15:17:14;14.70;95.10
17762;DHT22;9005;48.838;10.112;2023-03-21T15:19:41;14.70;96.70
17762;DHT22;9005;48.838;10.112;2023-03-21T15:22:15;14.60;93.90
17762;DHT22;9005;48.838;10.112;2023-03-21T15:24:49;14.60;96.20
17762;DHT22;9005;48.838;10.112;2023-03-21T15:27:19;14.60;92.40
17762;DHT22;9005;48.838;10.112;2023-03-21T15:29:50;14.60;92.20
17762;DHT22;9005;48.838;10.112;2023-03-21T15:32:20;14.70;92.60
17762;DHT22;9005;48.838;10.112;2023-03-21T15:34:48;14.60;92.90
17762;DHT22;9005;48.838;10.112;2023-03-21T15:37:21;14.60;90.70
17762;DHT22;9005;48.838;10.112;2023-03-21T15:39:49;14.60;90.40
17762;DHT22;9005;48.838;10.112;2023-03-21T15:42:26;14.60;92.10
17762;DHT22;9005;48.838;10.112;2023-03-21T15:44:55;14.60;86.90
17762;DHT22;9005;48.838;10.112;2023-03-21T15:47:39;14.60;89.50
17762;DHT22;9005;48.838;10.112;2023-03-21T15:50:07;14.60;91.90
17762;DHT22;9005;48.838;10.112;2023-03-21T15:52:37;14.60;90.00
17762;DHT22;9005;48.838;10.112;2023-03-21T15:55:16;14.60;89.40
17762;DHT22;9005;48.838;10.112;2023-03-21T15:57:47;14.60;88.00
17762;DHT22;9005;48.838;10.112;2023-03-21T16:00:20;14.60;89.00
17762;DHT22;9005;48.838;10.112;2023-03-21T16:02:53;14.60;90.00
17762;DHT22;9005;48.838;10.112;2023-03-21T16:05:24;14.70;90.00
17762;DHT22;9005;48.838;10.112;2023-03-21T16:07:57;14.60;91.40
17762;DHT22;9005;48.838;10.112;2023-03-21T16:10:27;14.60;91.00
17762;DHT22;9005;48.838;10.112;2023-03-21T16:12:54;14.70;92.60
17762;DHT22;9005;48.838;10.112;2023-03-21T16:15:21;14.80;89.50
17762;DHT22;9005;48.838;10.112;2023-03-21T16:17:50;14.80;89.60
17762;DHT22;9005;48.838;10.112;2023-03-21T16:20:21;15.50;89.50
17762;DHT22;9005;48.838;10.112;2023-03-21T16:22:48;14.90;91.00
17762;DHT22;9005;48.838;10.112;2023-03-21T16:25:16;14.90;91.40
17762;DHT22;9005;48.838;10.112;2023-03-21T16:27:43;15.00;88.70
17762;DHT22;9005;48.838;10.112;2023-03-21T16:30:12;15.10;92.80
17762;DHT22;9005;48.838;10.112;2023-03-21T16:32:39;15.20;92.80
17762;DHT22;9005;48.838;10.112;2023-03-21T16:35:06;15.20;92.00
17762;DHT22;9005;48.838;10.112;2023-03-21T16:37:34;15.10;88.60
17762;DHT22;9005;48.838;10.112;2023-03-21T16:40:01;15.00;85.80
17762;DHT22;9005;48.838;10.112;2023-03-21T16:42:31;14.90;88.60
17762;DHT22;9005;48.838;10.112;2023-03-21T16:44:58;14.70;92.30
17762;DHT22;9005;48.838;10.112;2023-03-21T16:47:25;14.60;91.80
17762;DHT22;9005;48.838;10.112;2023-03-21T16:49:51;14.40;94.30
17762;DHT22;9005;48.838;10.112;2023-03-21T16:52:20;14.30;95.60
17762;DHT22;9005;48.838;10.112;2023-03-21T16:54:46;14.90;95.70
17762;DHT22;9005;48.838;10.112;2023-03-21T16:57:21;14.00;97.20